createdAt,value
2018-06-29T00:01:21.927Z,47.5
2018-06-29T00:03:24.298Z,47.6
2018-06-29T00:05:26.666Z,47.6
2018-06-29T00:07:29.289Z,47.5
2018-06-29T00:09:31.655Z,47.6
2018-06-29T00:11:34.023Z,47.7
2018-06-29T00:13:36.411Z,47.7
2018-06-29T00:15:38.779Z,47.8
2018-06-29T00:17:41.148Z,47.9
2018-06-29T00:19:43.515Z,47.7
2018-06-29T00:21:46.060Z,47.7
2018-06-29T00:23:48.428Z,47.7
2018-06-29T00:25:50.796Z,47.8
2018-06-29T00:27:53.165Z,47.8
2018-06-29T00:29:55.533Z,47.9
2018-06-29T00:31:57.901Z,47.9
2018-06-29T00:34:00.269Z,47.8
2018-06-29T00:36:02.636Z,47.7
2018-06-29T00:38:05.006Z,47.8
2018-06-29T00:40:07.378Z,47.9
2018-06-29T00:42:09.743Z,47.9
2018-06-29T00:44:12.111Z,48.1
2018-06-29T00:46:14.527Z,48
2018-06-29T00:48:16.890Z,47.7
2018-06-29T00:50:19.258Z,48.1
2018-06-29T00:52:21.625Z,48.1
2018-06-29T00:54:23.992Z,48
2018-06-29T00:56:26.362Z,48.3
2018-06-29T00:58:28.727Z,48.1
2018-06-29T01:00:31.156Z,48.5
2018-06-29T01:02:33.524Z,48.4
2018-06-29T01:04:35.891Z,48.4
2018-06-29T01:06:38.258Z,48.3
2018-06-29T01:08:40.624Z,48.4
2018-06-29T01:10:42.993Z,48.5
2018-06-29T01:12:45.382Z,48.5
2018-06-29T01:14:47.752Z,48.4
2018-06-29T01:16:50.117Z,48.4
2018-06-29T01:18:52.484Z,48.6
2018-06-29T01:20:54.848Z,48.6
2018-06-29T01:23:00.188Z,48.4
2018-06-29T01:25:02.570Z,48.6
2018-06-29T01:27:04.938Z,48.7
2018-06-29T01:29:07.305Z,48.5
2018-06-29T01:31:09.672Z,48.5
2018-06-29T01:33:12.044Z,48.3
2018-06-29T01:35:14.433Z,48.5
2018-06-29T01:37:16.801Z,48.6
2018-06-29T01:39:19.165Z,48.5
2018-06-29T01:41:21.586Z,48.5
2018-06-29T01:43:23.950Z,48.7
2018-06-29T01:45:26.347Z,48.7
2018-06-29T01:47:28.711Z,48.6
2018-06-29T01:49:32.005Z,48.9
2018-06-29T01:51:35.343Z,48.9
2018-06-29T01:53:37.679Z,48.9
2018-06-29T01:55:40.046Z,49
2018-06-29T01:57:42.415Z,48.9
2018-06-29T01:59:44.781Z,48.8
2018-06-29T02:01:47.154Z,48.7
2018-06-29T02:03:49.517Z,48.8
2018-06-29T02:05:51.883Z,48.7
2018-06-29T02:07:54.285Z,48.8
2018-06-29T02:09:56.623Z,48.7
2018-06-29T02:11:58.990Z,48.7
2018-06-29T02:14:01.357Z,48.6
2018-06-29T02:16:03.728Z,48.6
2018-06-29T02:18:06.189Z,48.4
2018-06-29T02:20:08.558Z,48.4
2018-06-29T02:22:10.928Z,48.6
2018-06-29T02:24:13.315Z,48.4
2018-06-29T02:26:15.683Z,48.5
2018-06-29T02:28:18.049Z,48.2
2018-06-29T02:30:20.552Z,48.6
2018-06-29T02:32:22.981Z,48.3
2018-06-29T02:34:25.348Z,48.6
2018-06-29T02:36:27.721Z,48.5
2018-06-29T02:38:30.096Z,48.6
2018-06-29T02:40:32.450Z,48.7
2018-06-29T02:42:34.815Z,48.8
2018-06-29T02:44:37.186Z,48.9
2018-06-29T02:46:42.266Z,49.2
2018-06-29T02:48:44.634Z,49.2
2018-06-29T02:50:46.999Z,49.3
2018-06-29T02:52:49.367Z,49.4
2018-06-29T02:54:51.741Z,49.3
2018-06-29T02:56:54.102Z,49.2
2018-06-29T02:58:56.470Z,49.1
2018-06-29T03:00:58.839Z,49
2018-06-29T03:03:01.204Z,48.7
2018-06-29T03:05:03.572Z,48.7
2018-06-29T03:07:05.941Z,48.8
2018-06-29T03:09:09.384Z,48.6
2018-06-29T03:11:11.753Z,48.5
2018-06-29T03:13:14.123Z,48.5
2018-06-29T03:15:16.507Z,48.4
2018-06-29T03:17:18.874Z,48.5
2018-06-29T03:19:21.243Z,48.6
2018-06-29T03:21:23.610Z,48.6
2018-06-29T03:23:25.976Z,48.6
2018-06-29T03:25:28.342Z,48.6
2018-06-29T03:27:31.634Z,48.6
2018-06-29T03:29:34.001Z,48.6
2018-06-29T03:31:36.367Z,48.6
2018-06-29T03:33:39.723Z,48.7
2018-06-29T03:35:42.093Z,48.6
2018-06-29T03:37:44.461Z,48.6
2018-06-29T03:39:46.824Z,48.6
2018-06-29T03:41:49.190Z,48.5
2018-06-29T03:43:51.558Z,48.6
2018-06-29T03:45:53.930Z,48.7
2018-06-29T03:47:56.293Z,48.6
2018-06-29T03:49:58.660Z,48.8
2018-06-29T03:52:01.031Z,48.5
2018-06-29T03:54:03.416Z,48.5
2018-06-29T03:56:05.783Z,48.6
2018-06-29T03:58:08.151Z,48.4
2018-06-29T04:00:10.516Z,48.4
2018-06-29T04:02:12.884Z,48.5
2018-06-29T04:04:15.249Z,48.5
2018-06-29T04:06:17.618Z,48.3
2018-06-29T04:08:19.985Z,48.3
2018-06-29T04:10:23.282Z,48.2
2018-06-29T04:12:25.650Z,48.1
2018-06-29T04:14:28.019Z,48.3
2018-06-29T04:16:30.390Z,48.2
2018-06-29T04:18:32.756Z,48.3
2018-06-29T04:20:35.126Z,48.6
2018-06-29T04:22:37.517Z,48.3
2018-06-29T04:24:39.886Z,48.5
2018-06-29T04:26:42.256Z,48.7
2018-06-29T04:28:44.622Z,48.5
2018-06-29T04:30:46.989Z,48.7
2018-06-29T04:32:49.475Z,48.9
2018-06-29T04:34:51.966Z,49
2018-06-29T04:36:54.335Z,49.1
2018-06-29T04:38:56.701Z,49
2018-06-29T04:40:59.068Z,49.6
2018-06-29T04:43:01.558Z,49.8
2018-06-29T04:45:03.967Z,50
2018-06-29T05:42:02.980Z,54
2018-06-29T05:44:06.353Z,54.1
2018-06-29T05:46:09.355Z,54
2018-06-29T05:48:12.716Z,54
2018-06-29T05:50:16.416Z,53.9
2018-06-29T05:52:19.417Z,53.8
2018-06-29T05:53:45.931Z,53.9
2018-06-29T05:55:50.127Z,53.8
2018-06-29T05:57:53.885Z,53.3
2018-06-29T05:59:58.032Z,53.2
2018-06-29T06:02:01.903Z,52.4
2018-06-29T06:04:06.025Z,52
2018-06-29T06:06:12.561Z,51.8
2018-06-29T06:08:16.019Z,51.7
2018-06-29T06:10:30.064Z,51.8
2018-06-29T06:12:36.601Z,52.1
2018-06-29T06:14:43.535Z,52
2018-06-29T06:16:47.679Z,52.3
2018-06-29T06:18:53.034Z,52.3
2018-06-29T06:20:56.606Z,52.3
2018-06-29T06:23:05.596Z,52.1
2018-06-29T06:25:09.675Z,51.5
2018-06-29T06:27:18.316Z,51.4
2018-06-29T06:29:22.671Z,51.3
2018-06-29T06:31:32.544Z,50.6
2018-06-29T06:33:38.109Z,50.4
2018-06-29T06:35:41.142Z,50.2
2018-06-29T06:37:45.133Z,49.9
2018-06-29T06:39:49.416Z,50
2018-06-29T06:41:53.403Z,49.8
2018-06-29T06:43:57.002Z,49.5
2018-06-29T06:46:08.578Z,49.5
2018-06-29T06:48:21.904Z,49.8
2018-06-29T06:50:26.564Z,49.7
2018-06-29T06:52:39.023Z,49.5
2018-06-29T06:55:21.107Z,49.9
2018-06-29T06:57:30.928Z,49.6
2018-06-29T06:59:51.857Z,49.8
2018-06-29T07:01:05.203Z,50
2018-06-29T07:03:08.161Z,49
2018-06-29T07:05:11.041Z,47.9
2018-06-29T07:07:14.471Z,47.2
2018-06-29T07:09:17.725Z,46.8
2018-06-29T07:11:20.851Z,46.4
2018-06-29T07:13:24.036Z,46.5
2018-06-29T07:15:29.768Z,46.5
2018-06-29T07:17:33.005Z,46.4
2018-06-29T07:19:35.952Z,46.7
2018-06-29T07:21:39.090Z,46.6
2018-06-29T07:23:42.078Z,46.9
2018-06-29T07:25:45.114Z,47.2
2018-06-29T07:27:48.057Z,47.4
2018-06-29T07:29:51.106Z,47.5
2018-06-29T07:31:54.148Z,47.5
2018-06-29T07:33:57.061Z,47.4
2018-06-29T07:36:00.040Z,47.6
2018-06-29T07:38:03.293Z,47.7
2018-06-29T07:40:06.282Z,48.1
2018-06-29T07:42:09.213Z,47.7
2018-06-29T07:44:12.195Z,48
2018-06-29T07:46:15.213Z,48.2
2018-06-29T07:48:18.457Z,48.1
2018-06-29T07:50:22.084Z,48.4
2018-06-29T07:52:25.112Z,48.2
2018-06-29T07:54:28.011Z,48.6
2018-06-29T07:56:31.077Z,48.4
2018-06-29T07:58:34.312Z,48.5
2018-06-29T08:00:37.540Z,48.6
2018-06-29T08:02:40.559Z,48.5
2018-06-29T08:04:43.679Z,48.8
2018-06-29T08:06:47.066Z,48.8
2018-06-29T08:08:50.125Z,48.9
2018-06-29T08:10:53.065Z,48.9
2018-06-29T08:12:58.742Z,49
2018-06-29T08:15:01.837Z,49
2018-06-29T08:17:04.788Z,49.1
2018-06-29T08:19:07.804Z,48.8
2018-06-29T08:21:10.881Z,48.9
2018-06-29T08:23:13.828Z,48.9
2018-06-29T08:25:16.837Z,48.8
2018-06-29T08:27:19.796Z,49
2018-06-29T08:29:23.109Z,48.8
2018-06-29T08:31:26.206Z,49.1
2018-06-29T08:33:31.377Z,49.1
2018-06-29T08:35:34.380Z,49.1
2018-06-29T08:37:37.471Z,49.2
2018-06-29T08:39:40.511Z,49.2
2018-06-29T08:41:43.568Z,49
2018-06-29T08:43:46.531Z,48.9
2018-06-29T08:45:49.456Z,49
2018-06-29T08:47:52.705Z,49
2018-06-29T08:49:55.833Z,48.9
2018-06-29T08:51:58.807Z,49.1
2018-06-29T08:54:01.775Z,49.3
2018-06-29T08:56:04.860Z,48.9
2018-06-29T08:58:07.849Z,48.9
2018-06-29T09:00:11.042Z,49.1
2018-06-29T09:02:13.973Z,49
2018-06-29T09:04:17.020Z,49
2018-06-29T09:06:20.017Z,48.8
2018-06-29T09:08:23.036Z,48.8
2018-06-29T09:09:22.786Z,50.1
2018-06-29T09:11:25.925Z,48.4
2018-06-29T09:13:28.858Z,48.1
2018-06-29T09:15:31.967Z,48.4
2018-06-29T09:17:34.970Z,48.3
2018-06-29T09:19:37.881Z,48.6
2018-06-29T09:21:40.981Z,48.8
2018-06-29T09:23:43.988Z,49
2018-06-29T09:25:46.959Z,48.8
2018-06-29T09:27:50.042Z,49
2018-06-29T09:29:53.118Z,48.8
2018-06-29T09:31:56.341Z,48.9
2018-06-29T09:33:59.381Z,48.9
2018-06-29T09:36:02.293Z,49.1
2018-06-29T09:38:05.335Z,49.3
2018-06-29T09:40:08.239Z,49.4
2018-06-29T09:42:11.339Z,49.7
2018-06-29T09:44:14.277Z,49.3
2018-06-29T09:46:17.481Z,49.1
2018-06-29T09:48:20.887Z,49.2
2018-06-29T09:50:27.181Z,49
2018-06-29T09:52:31.773Z,48.8
2018-06-29T09:54:34.931Z,48.8
2018-06-29T09:56:37.922Z,49.9
2018-06-29T09:58:41.298Z,49.1
2018-06-29T10:00:44.728Z,49
2018-06-29T10:02:56.744Z,48.9
2018-06-29T10:04:59.787Z,48.7
2018-06-29T10:07:02.886Z,48.7
2018-06-29T10:09:12.032Z,48.9
2018-06-29T10:11:16.034Z,48.9
2018-06-29T10:13:22.020Z,48.8
2018-06-29T10:15:24.982Z,49.3
2018-06-29T10:17:28.357Z,49.2
2018-06-29T10:19:31.698Z,48.9
2018-06-29T10:21:41.349Z,49.1
2018-06-29T10:23:45.360Z,48.8
2018-06-29T10:25:48.283Z,48.9
2018-06-29T10:27:51.752Z,48.9
2018-06-29T10:29:55.373Z,48.7
2018-06-29T10:32:07.678Z,48.8
2018-06-29T10:34:21.987Z,48.8
2018-06-29T10:36:29.221Z,48.5
2018-06-29T10:41:03.608Z,48
2018-06-29T10:43:06.642Z,48
2018-06-29T10:45:17.675Z,48.1
2018-06-29T10:47:30.378Z,48.3
2018-06-29T10:49:44.203Z,48.3
2018-06-29T10:52:02.493Z,48.3
2018-06-29T10:54:14.757Z,48.5
2018-06-29T10:56:26.213Z,48
2018-06-29T10:58:36.242Z,48.3
2018-06-29T11:00:42.510Z,48.4
2018-06-29T11:04:59.401Z,48.4
2018-06-29T11:07:02.675Z,48.3
2018-06-29T11:09:06.266Z,48.4
2018-06-29T11:13:18.211Z,48.3
2018-06-29T11:15:29.294Z,48.1
2018-06-29T11:17:44.815Z,48.3
2018-06-29T11:19:51.535Z,48.2
2018-06-29T11:22:04.337Z,48.1
2018-06-29T11:24:08.380Z,48.2
2018-06-29T11:26:17.620Z,48.1
2018-06-29T11:28:31.007Z,48.2
2018-06-29T11:30:37.390Z,48.4
2018-06-29T11:32:43.750Z,48.4
2018-06-29T11:34:50.258Z,48.5
2018-06-29T11:36:58.682Z,48.5
2018-06-29T11:39:10.131Z,48.5
2018-06-29T11:43:24.625Z,48.5
2018-06-29T11:45:31.072Z,48.7
2018-06-29T11:47:43.298Z,48.7
2018-06-29T11:50:16.276Z,48.8
2018-06-29T11:52:22.434Z,48.9
2018-06-29T11:54:49.432Z,49
2018-06-29T11:56:52.518Z,48.9
2018-06-29T11:58:56.322Z,49
2018-06-29T12:01:03.881Z,49
2018-06-29T12:03:08.181Z,49.1
2018-06-29T12:05:14.005Z,49.1
2018-06-29T12:07:17.080Z,49.1
2018-06-29T12:09:20.897Z,49.1
2018-06-29T12:11:27.151Z,49.3
2018-06-29T12:12:39.155Z,49.5
2018-06-29T12:14:42.353Z,48.1
2018-06-29T12:16:51.551Z,46.8
2018-06-29T12:18:55.364Z,46.2
2018-06-29T12:20:58.894Z,45.8
2018-06-29T12:23:01.777Z,45.2
2018-06-29T12:25:05.351Z,45.4
2018-06-29T12:27:08.650Z,45.3
2018-06-29T12:29:11.704Z,45.2
2018-06-29T12:31:14.673Z,44.8
2018-06-29T12:33:17.803Z,45.2
2018-06-29T12:35:21.727Z,45
2018-06-29T12:37:24.852Z,45.5
2018-06-29T12:39:28.048Z,45.3
2018-06-29T12:41:31.310Z,45.4
2018-06-29T12:43:34.306Z,45.6
2018-06-29T12:45:37.389Z,46
2018-06-29T12:47:40.617Z,45.9
2018-06-29T12:49:44.009Z,46
2018-06-29T12:51:47.012Z,46.5
2018-06-29T12:53:50.100Z,46.7
2018-06-29T12:55:54.665Z,46.8
2018-06-29T12:57:59.293Z,46.7
2018-06-29T13:00:02.655Z,47.4
2018-06-29T13:02:05.558Z,47.7
2018-06-29T13:03:20.842Z,48.3
2018-06-29T13:05:24.687Z,48.2
2018-06-29T13:07:28.143Z,49
2018-06-29T13:09:31.082Z,49.5
2018-06-29T13:11:34.322Z,50.2
2018-06-29T13:13:40.143Z,50.4
2018-06-29T13:15:43.810Z,50.8
2018-06-29T13:17:47.069Z,50.7
2018-06-29T13:19:51.387Z,50.7
2018-06-29T13:21:55.082Z,50.6
2018-06-29T13:24:00.507Z,50.5
2018-06-29T13:26:03.660Z,50.6
2018-06-29T13:28:07.163Z,50.9
2018-06-29T13:30:10.325Z,51
2018-06-29T13:32:19.468Z,51.4
2018-06-29T13:34:22.530Z,51.3
2018-06-29T13:36:25.895Z,51.1
2018-06-29T13:38:38.608Z,51.2
2018-06-29T13:40:51.447Z,51.4
2018-06-29T13:41:49.110Z,51.3
2018-06-29T13:43:10.917Z,52.1
2018-06-29T13:45:13.896Z,51.4
2018-06-29T13:47:16.968Z,51.3
2018-06-29T13:49:20.452Z,51.2
2018-06-29T13:51:26.577Z,50.8
2018-06-29T13:53:29.575Z,50.8
2018-06-29T13:55:32.574Z,51
2018-06-29T13:57:35.599Z,50.8
2018-06-29T13:59:38.630Z,51.7
2018-06-29T14:01:41.682Z,51
2018-06-29T14:03:44.611Z,50.7
2018-06-29T14:05:47.606Z,50.5
2018-06-29T14:07:50.680Z,50.6
2018-06-29T14:09:53.886Z,50.5
2018-06-29T14:11:56.797Z,50.5
2018-06-29T14:13:59.838Z,50.5
2018-06-29T14:16:02.847Z,50.5
2018-06-29T14:18:06.121Z,50.5
2018-06-29T14:20:09.310Z,50.2
2018-06-29T14:22:12.241Z,50.5
2018-06-29T14:24:15.490Z,50.7
2018-06-29T14:26:18.635Z,51.4
2018-06-29T14:28:21.592Z,50.5
2018-06-29T14:30:24.652Z,50.2
2018-06-29T14:32:27.807Z,50.4
2018-06-29T14:34:30.879Z,49.9
2018-06-29T14:36:33.805Z,49.9
2018-06-29T14:38:36.761Z,49.9
2018-06-29T14:40:39.771Z,49.9
2018-06-29T14:42:42.703Z,49.8
2018-06-29T14:44:45.631Z,50.6
2018-06-29T14:46:48.597Z,50.8
2018-06-29T14:48:51.534Z,50.1
2018-06-29T14:50:55.656Z,50
2018-06-29T14:52:58.765Z,50.8
2018-06-29T14:55:01.691Z,50.2
2018-06-29T14:57:06.143Z,50.1
2018-06-29T14:59:09.079Z,50.1
2018-06-29T15:01:12.089Z,50.3
2018-06-29T15:03:15.046Z,50.4
2018-06-29T15:05:17.983Z,50.3
2018-06-29T15:07:21.039Z,49.9
2018-06-29T15:09:24.047Z,50
2018-06-29T15:11:27.500Z,50.7
2018-06-29T15:13:30.423Z,50
2018-06-29T15:15:33.401Z,49.9
2018-06-29T15:17:36.345Z,50
2018-06-29T15:19:39.338Z,50
2018-06-29T15:21:42.646Z,50
2018-06-29T15:23:45.724Z,50.1
2018-06-29T15:25:48.670Z,50.2
2018-06-29T15:27:51.754Z,50.2
2018-06-29T15:29:54.659Z,50.2
2018-06-29T15:31:57.679Z,50.2
2018-06-29T15:34:00.593Z,50.3
2018-06-29T15:36:03.661Z,50.2
2018-06-29T15:38:06.603Z,50.1
2018-06-29T15:40:09.655Z,50.3
2018-06-29T15:42:12.585Z,50.2
2018-06-29T15:44:15.563Z,50.2
2018-06-29T15:46:19.340Z,50.3
2018-06-29T15:48:22.301Z,50.6
2018-06-29T15:50:25.347Z,50.3
2018-06-29T15:52:28.689Z,50.3
2018-06-29T15:54:31.667Z,50.2
2018-06-29T15:56:34.625Z,50.6
2018-06-29T15:58:37.555Z,50.7
2018-06-29T16:00:40.600Z,50.2
2018-06-29T16:02:43.579Z,50.1
2018-06-29T16:04:46.556Z,50.1
2018-06-29T16:06:49.992Z,50.1
2018-06-29T16:08:53.080Z,50.1
2018-06-29T16:10:55.983Z,50.1
2018-06-29T16:12:59.433Z,50.2
2018-06-29T16:15:02.346Z,50.2
2018-06-29T16:17:05.403Z,50.5
2018-06-29T16:19:08.383Z,50.1
2018-06-29T16:21:11.415Z,51.1
2018-06-29T16:23:14.377Z,50.4
2018-06-29T16:25:17.303Z,50.5
2018-06-29T16:27:20.475Z,50.9
2018-06-29T16:29:23.493Z,50.5
2018-06-29T16:31:26.395Z,50.4
2018-06-29T16:33:29.533Z,50.8
2018-06-29T16:35:32.495Z,51
2018-06-29T16:37:35.668Z,50.5
2018-06-29T16:39:39.063Z,50.9
2018-06-29T16:41:42.021Z,50.8
2018-06-29T16:43:45.018Z,50.2
2018-06-29T16:45:48.070Z,50.2
2018-06-29T16:47:51.121Z,50.8
2018-06-29T16:49:54.289Z,50.7
2018-06-29T16:51:57.396Z,50.7
2018-06-29T17:56:07.020Z,53.5
2018-06-29T17:58:09.408Z,53.3
2018-06-29T18:00:11.755Z,53
2018-06-29T18:02:14.151Z,52.9
2018-06-29T18:04:16.616Z,52.5
2018-06-29T18:06:18.973Z,52.7
2018-06-29T18:08:21.357Z,52.5
2018-06-29T18:10:23.723Z,52.5
2018-06-29T18:12:26.096Z,52.3
2018-06-29T18:14:28.475Z,52.4
2018-06-29T18:16:30.871Z,52.3
2018-06-29T18:18:33.255Z,52.3
2018-06-29T18:20:35.624Z,52.1
2018-06-29T18:22:37.997Z,51.9
2018-06-29T18:24:40.360Z,51.8
2018-06-29T18:26:42.728Z,51.7
2018-06-29T18:28:45.118Z,51.6
2018-06-29T18:30:47.488Z,51.9
2018-06-29T18:32:49.849Z,51.8
2018-06-29T18:34:52.230Z,51.5
2018-06-29T18:36:54.598Z,51.5
2018-06-29T18:38:57.950Z,51.7
2018-06-29T18:41:00.281Z,51.6
2018-06-29T18:43:02.648Z,51.5
2018-06-29T18:45:05.020Z,51.3
2018-06-29T18:47:07.398Z,51.5
2018-06-29T18:49:09.912Z,51.5
2018-06-29T18:51:12.326Z,51.8
2018-06-29T18:53:14.684Z,51.5
2018-06-29T18:55:17.041Z,51.6
2018-06-29T18:57:19.451Z,51.6
2018-06-29T18:59:21.922Z,51.5
2018-06-29T19:01:24.281Z,51.4
2018-06-29T19:03:26.666Z,51.9
2018-06-29T19:05:29.036Z,51.8
2018-06-29T19:07:31.395Z,51.8
2018-06-29T19:09:33.995Z,51.9
2018-06-29T19:11:36.795Z,51.8
2018-06-29T19:13:39.352Z,51.7
2018-06-29T19:15:41.713Z,51.7
2018-06-29T19:17:44.093Z,51.7
2018-06-29T19:19:46.493Z,51.7
2018-06-29T19:21:48.860Z,51.5
2018-06-29T19:23:51.228Z,51.4
2018-06-29T19:25:53.667Z,51.6
2018-06-29T19:27:56.045Z,51.5
2018-06-29T19:29:58.406Z,51.5
2018-06-29T19:32:00.770Z,51.6
2018-06-29T19:34:03.140Z,51.6
2018-06-29T19:36:05.516Z,51.5
2018-06-29T19:38:07.884Z,51.8
2018-06-29T19:40:10.263Z,51.6
2018-06-29T19:42:12.635Z,51.6
2018-06-29T19:44:15.003Z,51.4
2018-06-29T19:46:17.400Z,51.8
2018-06-29T19:48:19.802Z,52
2018-06-29T19:50:22.167Z,52.1
2018-06-29T19:52:24.557Z,52.1
2018-06-29T19:54:27.004Z,51.8
2018-06-29T19:56:29.371Z,51.7
2018-06-29T19:58:31.735Z,51.5
2018-06-29T20:00:34.103Z,51.4
2018-06-29T20:02:36.472Z,51.3
2018-06-29T20:04:38.837Z,51.5
2018-06-29T20:06:41.281Z,51.7
2018-06-29T20:08:43.662Z,51.7
2018-06-29T20:10:46.046Z,51.1
2018-06-29T20:12:48.416Z,51.1
2018-06-29T20:14:50.784Z,51.9
2018-06-29T20:16:53.202Z,51.8
2018-06-29T20:18:55.572Z,51.8
2018-06-29T20:20:57.938Z,51.8
2018-06-29T20:23:00.305Z,51.7
2018-06-29T20:25:02.722Z,52.4
2018-06-29T20:27:05.205Z,51.3
2018-06-29T20:29:07.704Z,51
2018-06-29T20:31:10.072Z,51
2018-06-29T20:33:12.768Z,50.6
2018-06-29T20:35:15.402Z,50.6
2018-06-29T20:37:17.766Z,50.5
2018-06-29T20:39:20.161Z,53
2018-06-29T20:41:22.545Z,49.8
2018-06-29T20:43:24.911Z,51.7
2018-06-29T20:45:27.292Z,50.8
2018-06-29T20:47:29.767Z,50.9
2018-06-29T20:49:32.142Z,48.9
2018-06-29T20:51:34.547Z,49.6
2018-06-29T20:53:36.916Z,49.2
2018-06-29T20:55:39.373Z,48.1
2018-06-29T20:57:41.729Z,48
2018-06-29T20:59:44.096Z,48
2018-06-29T21:01:46.464Z,46.7
2018-06-29T21:03:48.832Z,48.2
2018-06-29T21:05:51.213Z,47.5
2018-06-29T21:07:53.578Z,50.5
2018-06-29T21:09:55.942Z,50.6
2018-06-29T21:11:32.822Z,48.1
2018-06-29T21:13:35.191Z,48.2
2018-06-29T21:15:37.882Z,47.7
2018-06-29T21:17:40.247Z,50.7
2018-06-29T21:19:42.663Z,47.8
2018-06-29T21:20:57.959Z,47.9
2018-06-29T21:23:00.330Z,48.1
2018-06-29T21:25:02.697Z,48.4
2018-06-29T21:27:05.066Z,48.4
2018-06-29T21:29:11.429Z,50
2018-06-29T21:30:00.132Z,48.8
2018-06-29T21:32:02.493Z,48.4
2018-06-29T21:34:04.863Z,48.2
2018-06-29T21:36:07.230Z,48.5
2018-06-29T21:38:09.599Z,48.9
2018-06-29T21:40:11.970Z,49.2
2018-06-29T21:42:14.340Z,49.5
2018-06-29T21:44:16.758Z,49.9
2018-06-29T21:46:19.076Z,50.1
2018-06-29T21:48:21.446Z,50.2
2018-06-29T21:50:24.730Z,50.2
2018-06-29T21:52:27.100Z,50.3
2018-06-29T21:54:29.833Z,49.2
2018-06-29T21:56:32.286Z,50.6
2018-06-29T21:58:34.654Z,50.9
2018-06-29T22:00:37.194Z,48.9
2018-06-29T22:02:39.563Z,51.4
2018-06-29T22:04:42.917Z,48.6
2018-06-29T22:06:49.298Z,48.4
2018-06-29T22:08:51.670Z,48.5
2018-06-29T22:10:54.039Z,48.5
2018-06-29T22:12:56.421Z,48.7
2018-06-29T22:14:58.789Z,51.1
2018-06-29T22:17:01.164Z,51.5
2018-06-29T22:18:20.423Z,49
2018-06-29T22:20:22.791Z,48.2
2018-06-29T22:22:25.160Z,48.6
2018-06-29T22:24:28.443Z,48.4
2018-06-29T22:26:30.815Z,48.2
2018-06-29T22:28:33.185Z,48.4
2018-06-29T22:30:35.550Z,48.2
2018-06-29T22:32:37.920Z,48.3
2018-06-29T22:34:23.387Z,49.9
2018-06-29T22:36:28.438Z,48
2018-06-29T22:38:10.111Z,48.2
2018-06-29T22:40:12.541Z,48.3
2018-06-29T22:42:14.944Z,51.2
2018-06-29T22:44:17.378Z,48.3
2018-06-29T22:45:45.418Z,48.8
2018-06-29T22:46:17.832Z,51.9
2018-06-29T22:48:20.197Z,49.2
2018-06-29T22:50:22.564Z,51.8
2018-06-29T22:52:24.935Z,49.9
2018-06-29T22:54:27.304Z,49.4
2018-06-29T22:56:29.672Z,49.2
2018-06-29T22:58:32.038Z,48.9
2018-06-29T23:00:34.450Z,48.6
2018-06-29T23:02:36.821Z,48.6
2018-06-29T23:04:39.357Z,48.5
2018-06-29T23:06:41.722Z,48.5
2018-06-29T23:08:44.093Z,48.9
2018-06-29T23:10:46.460Z,48.8
2018-06-29T23:12:48.850Z,48.4
2018-06-29T23:14:54.194Z,49.5
2018-06-29T23:16:56.553Z,49.6
2018-06-29T23:18:59.006Z,49.5
2018-06-29T23:21:01.370Z,49.4
2018-06-29T23:23:03.739Z,49.3
2018-06-29T23:25:06.107Z,49.8
2018-06-29T23:27:08.481Z,49.4
2018-06-29T23:29:10.846Z,49.6
2018-06-29T23:31:13.220Z,49.3
2018-06-29T23:33:15.584Z,49
2018-06-29T23:35:17.971Z,49.4
2018-06-29T23:37:20.328Z,49.9
2018-06-29T23:39:22.694Z,49.2
2018-06-29T23:41:25.065Z,49.4
2018-06-29T23:43:27.433Z,49.4
2018-06-29T23:45:29.856Z,49.6
2018-06-29T23:47:32.279Z,49.8
2018-06-29T23:49:34.662Z,49.5
2018-06-29T23:51:37.033Z,49.6
2018-06-29T23:53:39.404Z,49.9
2018-06-29T23:55:41.771Z,49.7
2018-06-29T23:57:44.140Z,50.4
2018-06-29T23:59:46.530Z,50.1
